createdAt,value
2023-04-20T00:02:03.922Z,12.7
2023-04-20T00:04:52.022Z,15.1
2023-04-20T00:07:39.438Z,15.3
2023-04-20T00:10:26.660Z,14.1
2023-04-20T00:13:14.000Z,12.9
2023-04-20T00:16:01.401Z,14
2023-04-20T00:18:49.229Z,16
2023-04-20T00:21:36.785Z,15.1
2023-04-20T00:24:24.299Z,13.7
2023-04-20T00:27:11.759Z,12.8
2023-04-20T00:29:59.030Z,15.1
2023-04-20T00:32:46.406Z,15.6
2023-04-20T00:35:34.460Z,14.2
2023-04-20T00:38:21.719Z,13
2023-04-20T00:41:09.067Z,14.3
2023-04-20T00:43:56.464Z,15.9
2023-04-20T00:46:43.917Z,14.9
2023-04-20T00:49:31.780Z,13.5
2023-04-20T00:52:19.401Z,13
2023-04-20T00:55:07.068Z,15.6
2023-04-20T00:57:55.041Z,15.7
2023-04-20T01:00:42.880Z,14.3
2023-04-20T01:03:30.385Z,13
2023-04-20T01:06:18.462Z,14
2023-04-20T01:09:05.766Z,15.8
2023-04-20T01:11:54.712Z,14.8
2023-04-20T01:14:42.030Z,13.4
2023-04-20T01:17:29.539Z,12.7
2023-04-20T01:20:17.892Z,15
2023-04-20T01:23:08.154Z,15.4
2023-04-20T01:25:55.510Z,14
2023-04-20T01:28:42.924Z,12.8
2023-04-20T01:31:30.985Z,14
2023-04-20T01:34:18.408Z,15.6
2023-04-20T01:37:05.869Z,14.7
2023-04-20T01:39:53.310Z,13.4
2023-04-20T01:42:40.910Z,12.9
2023-04-20T01:45:28.550Z,15.2
2023-04-20T01:48:15.772Z,15.1
2023-04-20T01:51:03.335Z,13.8
2023-04-20T01:53:50.883Z,12.6
2023-04-20T01:56:38.328Z,14.3
2023-04-20T01:59:25.674Z,15.7
2023-04-20T02:02:13.118Z,14.4
2023-04-20T02:05:00.533Z,13.1
2023-04-20T02:07:49.251Z,12.2
2023-04-20T02:10:36.506Z,14.5
2023-04-20T02:13:23.996Z,15.3
2023-04-20T02:16:12.431Z,14
2023-04-20T02:19:00.473Z,12.7
2023-04-20T02:21:47.881Z,13.9
2023-04-20T02:24:35.348Z,15.6
2023-04-20T02:27:22.720Z,14.7
2023-04-20T02:30:10.579Z,13.3
2023-04-20T02:32:58.645Z,13
2023-04-20T02:35:46.211Z,15.3
2023-04-20T02:38:34.092Z,15.6
2023-04-20T02:41:22.556Z,14.2
2023-04-20T02:44:10.050Z,12.9
2023-04-20T02:46:57.397Z,13.9
2023-04-20T02:49:44.854Z,15.6
2023-04-20T02:52:32.331Z,14.6
2023-04-20T02:55:19.619Z,13.3
2023-04-20T02:58:07.044Z,14.3
2023-04-20T03:00:54.879Z,15.6
2023-04-20T03:03:45.308Z,14.5
2023-04-20T03:06:32.997Z,13.2
2023-04-20T03:09:21.253Z,13.5
2023-04-20T03:12:09.100Z,15.9
2023-04-20T03:14:56.358Z,15.4
2023-04-20T03:17:43.709Z,14
2023-04-20T03:20:31.914Z,12.7
2023-04-20T03:23:19.180Z,14.2
2023-04-20T03:26:06.555Z,15.9
2023-04-20T03:28:53.882Z,14.8
2023-04-20T03:31:41.339Z,13.5
2023-04-20T03:34:28.740Z,12.4
2023-04-20T03:37:16.424Z,14.3
2023-04-20T03:40:04.164Z,15.8
2023-04-20T03:42:54.032Z,14.6
2023-04-20T03:45:41.359Z,13.3
2023-04-20T03:48:28.756Z,13.4
2023-04-20T03:51:16.078Z,15.7
2023-04-20T03:54:03.519Z,15.2
2023-04-20T03:56:51.144Z,13.9
2023-04-20T03:59:38.463Z,12.8
2023-04-20T04:02:25.867Z,14.5
2023-04-20T04:05:13.444Z,15.6
2023-04-20T04:08:00.804Z,14.4
2023-04-20T04:10:48.128Z,13.1
2023-04-20T04:13:35.666Z,12.6
2023-04-20T04:16:23.133Z,15
2023-04-20T04:19:11.186Z,15.4
2023-04-20T04:21:58.559Z,14.1
2023-04-20T04:24:45.842Z,12.8
2023-04-20T04:27:33.475Z,13.8
2023-04-20T04:30:22.373Z,15.8
2023-04-20T04:33:10.473Z,15
2023-04-20T04:35:59.239Z,13.7
2023-04-20T04:38:47.061Z,13.2
2023-04-20T04:41:34.502Z,15.6
2023-04-20T04:44:22.074Z,15.7
2023-04-20T04:47:10.733Z,14.4
2023-04-20T04:49:58.811Z,13.1
2023-04-20T04:52:46.524Z,14.1
2023-04-20T04:55:34.011Z,16.1
2023-04-20T04:58:21.414Z,15.2
2023-04-20T05:01:08.980Z,13.9
2023-04-20T05:03:56.933Z,13.1
2023-04-20T05:06:44.458Z,15.3
2023-04-20T05:09:31.848Z,15.8
2023-04-20T05:12:19.288Z,14.5
2023-04-20T05:15:06.685Z,13.3
2023-04-20T05:17:54.837Z,14.2
2023-04-20T05:20:42.131Z,16.1
2023-04-20T05:23:29.564Z,15.4
2023-04-20T05:26:16.869Z,14.1
2023-04-20T05:29:04.139Z,13.2
2023-04-20T05:31:51.438Z,15.5
2023-04-20T05:34:38.870Z,16.1
2023-04-20T05:37:26.634Z,15
2023-04-20T05:40:14.041Z,13.8
2023-04-20T05:43:01.768Z,15.5
2023-04-20T05:45:49.097Z,16.7
2023-04-20T05:48:36.509Z,15.7
2023-04-20T05:51:23.783Z,14.4
2023-04-20T05:54:15.001Z,14.1
2023-04-20T05:57:02.568Z,16.6
2023-04-20T05:59:50.179Z,16.7
2023-04-20T06:02:40.110Z,15.3
2023-04-20T06:05:27.805Z,14.1
2023-04-20T06:08:15.209Z,15.4
2023-04-20T06:11:03.660Z,17
2023-04-20T06:13:51.205Z,16
2023-04-20T06:16:38.667Z,14.8
2023-04-20T06:19:26.130Z,14.6
2023-04-20T06:22:13.426Z,17.1
2023-04-20T06:25:01.534Z,17.2
2023-04-20T06:27:51.354Z,15.9
2023-04-20T06:30:39.978Z,14.6
2023-04-20T06:33:27.301Z,16.1
2023-04-20T06:36:15.025Z,17.5
2023-04-20T06:39:02.273Z,16.6
2023-04-20T06:41:49.652Z,15.3
2023-04-20T06:44:37.048Z,15.5
2023-04-20T06:47:24.547Z,17.8
2023-04-20T06:50:16.239Z,17.4
2023-04-20T06:53:03.807Z,16.2
2023-04-20T06:55:51.230Z,15.1
2023-04-20T06:58:39.464Z,16.6
2023-04-20T07:01:26.904Z,17.9
2023-04-20T07:04:14.384Z,16.9
2023-04-20T07:07:01.924Z,15.7
2023-04-20T07:09:49.339Z,15.5
2023-04-20T07:12:36.709Z,18
2023-04-20T07:15:25.455Z,18.2
2023-04-20T07:18:12.878Z,16.9
2023-04-20T07:21:00.496Z,15.7
2023-04-20T07:23:47.872Z,15.7
2023-04-20T07:26:35.642Z,18.1
2023-04-20T07:29:23.179Z,18
2023-04-20T07:32:11.099Z,16.8
2023-04-20T07:34:59.003Z,15.6
2023-04-20T07:37:46.293Z,16.9
2023-04-20T07:40:33.770Z,18.8
2023-04-20T07:43:21.058Z,18.1
2023-04-20T07:46:08.490Z,17
2023-04-20T07:48:55.865Z,16.4
2023-04-20T07:51:43.325Z,18.5
2023-04-20T07:54:30.638Z,19.3
2023-04-20T07:57:18.035Z,18.2
2023-04-20T08:00:05.577Z,17.2
2023-04-20T08:02:54.615Z,16.3
2023-04-20T08:05:42.159Z,17.4
2023-04-20T08:08:29.828Z,19.1
2023-04-20T08:11:17.300Z,18.5
2023-04-20T08:14:04.819Z,17.5
2023-04-20T08:16:52.340Z,16.5
2023-04-20T08:19:42.278Z,15.8
2023-04-20T08:22:31.572Z,17.5
2023-04-20T08:25:19.032Z,18.9
2023-04-20T08:28:11.893Z,18.2
2023-04-20T08:31:02.901Z,17.3
2023-04-20T08:33:50.752Z,17.7
2023-04-20T08:36:38.200Z,19.8
2023-04-20T08:39:25.703Z,19.7
2023-04-20T08:42:14.414Z,18.8
2023-04-20T08:45:01.828Z,17.9
2023-04-20T08:47:49.732Z,17.2
2023-04-20T08:50:37.490Z,17.3
2023-04-20T08:53:27.078Z,19.7
2023-04-20T08:56:16.202Z,19.7
2023-04-20T08:59:03.569Z,19
2023-04-20T09:01:54.734Z,18.2
2023-04-20T09:04:52.371Z,18.4
2023-04-20T09:07:48.631Z,19
2023-04-20T09:10:38.064Z,18.6
2023-04-20T09:13:27.591Z,18
2023-04-20T09:16:15.201Z,17.6
2023-04-20T09:19:02.778Z,18.3
2023-04-20T09:21:51.159Z,19.8
2023-04-20T09:24:40.437Z,19.5
2023-04-20T09:27:27.785Z,18.7
2023-04-20T09:30:15.808Z,18.2
2023-04-20T09:33:03.156Z,17.8
2023-04-20T09:35:53.006Z,18
2023-04-20T09:38:49.696Z,18.9
2023-04-20T09:41:54.588Z,18.8
2023-04-20T09:44:49.393Z,18.4
2023-04-20T09:47:38.045Z,18.3
2023-04-20T09:50:38.318Z,19
2023-04-20T09:53:35.833Z,20.1
2023-04-20T09:56:24.190Z,19.9
2023-04-20T09:59:13.339Z,19.5
2023-04-20T10:02:04.290Z,19.2
2023-04-20T10:04:54.102Z,18.8
2023-04-20T10:07:42.685Z,18.8
2023-04-20T10:10:30.166Z,19.5
2023-04-20T10:13:29.345Z,19.9
2023-04-20T10:16:19.139Z,20.1
2023-04-20T10:19:09.014Z,20.3
2023-04-20T10:21:57.093Z,20.5
2023-04-20T10:24:44.410Z,20.6
2023-04-20T10:27:32.064Z,20.6
2023-04-20T10:30:19.445Z,20.5
2023-04-20T10:33:08.449Z,20.5
2023-04-20T10:35:57.621Z,20.5
2023-04-20T10:38:45.002Z,20.5
2023-04-20T10:41:32.486Z,20.4
2023-04-20T10:44:20.476Z,20.4
2023-04-20T10:47:07.820Z,20.3
2023-04-20T10:49:55.945Z,20.2
2023-04-20T10:52:52.568Z,20.1
2023-04-20T10:55:40.127Z,19.9
2023-04-20T10:58:27.658Z,19.7
2023-04-20T11:01:15.043Z,19.6
2023-04-20T11:04:02.701Z,19.6
2023-04-20T11:06:51.752Z,19.5
2023-04-20T11:09:40.496Z,19.5
2023-04-20T11:12:28.292Z,19.5
2023-04-20T11:15:24.036Z,19.6
2023-04-20T11:18:16.850Z,19.6
2023-04-20T11:21:04.274Z,19.9
2023-04-20T11:23:51.914Z,20.1
2023-04-20T11:26:39.222Z,20.2
2023-04-20T11:29:28.155Z,20.6
2023-04-20T11:32:18.193Z,20.8
2023-04-20T11:35:06.817Z,20.9
2023-04-20T11:37:55.575Z,20.9
2023-04-20T11:40:43.602Z,21
2023-04-20T11:43:31.049Z,21.1
2023-04-20T11:46:18.761Z,21
2023-04-20T11:49:06.227Z,20.9
2023-04-20T11:51:53.609Z,20.8
2023-04-20T11:54:41.558Z,20.9
2023-04-20T11:57:28.849Z,21.2
2023-04-20T12:00:16.215Z,21.5
2023-04-20T12:03:05.153Z,21.7
2023-04-20T12:05:52.773Z,21.9
2023-04-20T12:08:40.240Z,22
2023-04-20T12:11:28.737Z,22
2023-04-20T12:14:16.152Z,21.8
2023-04-20T12:17:03.587Z,21.7
2023-04-20T12:19:51.127Z,21.5
2023-04-20T12:22:38.900Z,21.3
2023-04-20T12:25:26.370Z,21.1
2023-04-20T12:28:13.851Z,21.2
2023-04-20T12:31:01.455Z,21.4
2023-04-20T12:33:48.998Z,21.5
2023-04-20T12:36:36.702Z,21.3
2023-04-20T12:39:24.120Z,21.2
2023-04-20T12:42:12.215Z,21
2023-04-20T12:44:59.812Z,21
2023-04-20T12:47:47.431Z,21
2023-04-20T12:50:34.819Z,21
2023-04-20T12:53:22.631Z,21.1
2023-04-20T12:56:09.994Z,21.2
2023-04-20T12:58:57.640Z,21.2
2023-04-20T13:01:45.021Z,21.1
2023-04-20T13:04:32.608Z,21
2023-04-20T13:07:21.497Z,20.9
2023-04-20T13:10:09.728Z,20.8
2023-04-20T13:12:57.562Z,20.7
2023-04-20T13:15:46.464Z,20.8
2023-04-20T13:18:33.854Z,21.1
2023-04-20T13:21:21.407Z,21.5
2023-04-20T13:24:09.299Z,22.2
2023-04-20T13:26:56.704Z,22.8
2023-04-20T13:29:44.613Z,23.2
2023-04-20T13:32:32.349Z,23.5
2023-04-20T13:35:19.948Z,23.9
2023-04-20T13:38:08.212Z,24.5
2023-04-20T13:40:55.841Z,24.9
2023-04-20T13:43:43.324Z,24.9
2023-04-20T13:46:31.051Z,24.8
2023-04-20T13:49:19.118Z,24.7
2023-04-20T13:52:07.361Z,24.8
2023-04-20T13:54:54.938Z,24.8
2023-04-20T13:57:42.653Z,25
2023-04-20T14:00:30.204Z,25.2
2023-04-20T14:03:17.696Z,25.3
2023-04-20T14:06:05.811Z,25.5
2023-04-20T14:08:53.368Z,25.8
2023-04-20T14:11:41.028Z,26.1
2023-04-20T14:14:28.735Z,26.4
2023-04-20T14:17:16.256Z,26.6
2023-04-20T14:20:04.015Z,27
2023-04-20T14:22:53.989Z,27.3
2023-04-20T14:25:41.561Z,27.5
2023-04-20T14:28:30.211Z,27.6
2023-04-20T14:31:19.332Z,27.6
2023-04-20T14:34:07.258Z,27.7
2023-04-20T14:36:55.104Z,27.7
2023-04-20T14:39:42.574Z,27.5
2023-04-20T14:42:29.972Z,27.5
2023-04-20T14:45:18.725Z,27.8
2023-04-20T14:48:06.315Z,27.8
2023-04-20T14:50:53.869Z,27.8
2023-04-20T14:53:41.846Z,27.6
2023-04-20T14:56:29.343Z,27.3
2023-04-20T14:59:16.967Z,27
2023-04-20T15:02:04.694Z,26.6
2023-04-20T15:04:52.668Z,26.2
2023-04-20T15:07:43.047Z,25.8
2023-04-20T15:10:30.726Z,25.4
2023-04-20T15:13:18.225Z,25.2
2023-04-20T15:16:05.761Z,25.1
2023-04-20T15:18:53.741Z,25.1
2023-04-20T15:21:42.613Z,25.2
2023-04-20T15:24:31.186Z,25.2
2023-04-20T15:27:18.550Z,25.3
2023-04-20T15:30:06.106Z,25.4
2023-04-20T15:32:54.598Z,25.4
2023-04-20T15:35:42.383Z,25.5
2023-04-20T15:38:29.684Z,25.7
2023-04-20T15:41:17.161Z,26
2023-04-20T15:44:04.617Z,26.6
2023-04-20T15:46:52.141Z,27.2
2023-04-20T15:49:39.593Z,27.5
2023-04-20T15:52:27.066Z,28
2023-04-20T15:55:15.890Z,28.2
2023-04-20T15:58:03.659Z,28.3
2023-04-20T16:00:51.279Z,28.4
2023-04-20T16:03:39.019Z,28.6
2023-04-20T16:06:26.571Z,28.9
2023-04-20T16:09:14.155Z,29.1
2023-04-20T16:12:03.269Z,29
2023-04-20T16:14:53.188Z,29
2023-04-20T16:17:41.792Z,29.2
2023-04-20T16:20:30.015Z,29.3
2023-04-20T16:23:17.517Z,29.2
2023-04-20T16:26:05.420Z,28.8
2023-04-20T16:28:52.796Z,28.5
2023-04-20T16:31:40.583Z,28.3
2023-04-20T16:34:28.185Z,28.3
2023-04-20T16:37:16.314Z,28.5
2023-04-20T16:40:04.127Z,28.5
2023-04-20T16:42:54.548Z,28.5
2023-04-20T16:45:42.301Z,28.5
2023-04-20T16:48:30.309Z,28.5
2023-04-20T16:51:17.980Z,28.4
2023-04-20T16:54:05.521Z,28.4
2023-04-20T16:56:53.867Z,28.3
2023-04-20T16:59:44.020Z,28
2023-04-20T17:02:33.154Z,27.7
2023-04-20T17:05:21.936Z,27.1
2023-04-20T17:08:09.961Z,26.3
2023-04-20T17:10:57.878Z,25.5
2023-04-20T17:13:46.448Z,24.8
2023-04-20T17:16:33.960Z,24.1
2023-04-20T17:19:21.472Z,23.5
2023-04-20T17:22:09.603Z,23
2023-04-20T17:24:56.991Z,22.5
2023-04-20T17:27:45.186Z,22
2023-04-20T17:30:32.525Z,21.6
2023-04-20T17:33:20.116Z,21.3
2023-04-20T17:36:07.476Z,21
2023-04-20T17:38:55.041Z,20.7
2023-04-20T17:41:42.327Z,20.4
2023-04-20T17:44:30.072Z,20.2
2023-04-20T17:47:17.541Z,19.9
2023-04-20T17:50:05.418Z,19.7
2023-04-20T17:52:56.323Z,19.5
2023-04-20T17:55:43.685Z,19.3
2023-04-20T17:58:31.020Z,19.1
2023-04-20T18:01:18.542Z,18.9
2023-04-20T18:04:06.251Z,18.8
2023-04-20T18:06:54.437Z,18.6
2023-04-20T18:09:41.866Z,18.5
2023-04-20T18:12:29.733Z,18.4
2023-04-20T18:15:18.213Z,18.3
2023-04-20T18:18:06.167Z,18.2
2023-04-20T18:20:53.595Z,18.1
2023-04-20T18:23:41.028Z,17.9
2023-04-20T18:26:28.525Z,17.8
2023-04-20T18:29:16.193Z,17.7
2023-04-20T18:32:03.650Z,17.5
2023-04-20T18:34:51.324Z,17.4
2023-04-20T18:37:39.017Z,17.3
2023-04-20T18:40:26.601Z,17.1
2023-04-20T18:43:13.919Z,17
2023-04-20T18:46:01.645Z,16.9
2023-04-20T18:48:49.169Z,16.8
2023-04-20T18:51:36.650Z,16.6
2023-04-20T18:54:24.038Z,16.5
2023-04-20T18:57:12.590Z,16.4
2023-04-20T19:00:00.335Z,16.3
2023-04-20T19:02:52.264Z,16.2
2023-04-20T19:05:39.691Z,16.1
2023-04-20T19:08:27.125Z,15.9
2023-04-20T19:11:14.579Z,15.8
2023-04-20T19:14:02.342Z,16.6
2023-04-20T19:16:49.978Z,18.9
2023-04-20T19:19:37.534Z,18.7
2023-04-20T19:22:25.207Z,18
2023-04-20T19:25:13.475Z,17.4
2023-04-20T19:28:01.404Z,16.9
2023-04-20T19:30:49.577Z,16.4
2023-04-20T19:33:37.627Z,16.1
2023-04-20T19:36:26.220Z,15.8
2023-04-20T19:39:13.968Z,15.6
2023-04-20T19:42:01.803Z,15.4
2023-04-20T19:44:49.627Z,16.2
2023-04-20T19:47:38.611Z,18.1
2023-04-20T19:50:26.403Z,17.7
2023-04-20T19:53:13.877Z,17.1
2023-04-20T19:56:01.304Z,16.6
2023-04-20T19:58:49.139Z,16.2
2023-04-20T20:01:36.989Z,15.8
2023-04-20T20:04:24.530Z,15.5
2023-04-20T20:07:17.037Z,15.3
2023-04-20T20:10:04.662Z,16.7
2023-04-20T20:12:53.065Z,18.6
2023-04-20T20:15:40.673Z,18.1
2023-04-20T20:18:29.110Z,17.4
2023-04-20T20:21:16.503Z,16.7
2023-04-20T20:24:03.818Z,16.2
2023-04-20T20:26:51.360Z,15.8
2023-04-20T20:29:38.694Z,15.4
2023-04-20T20:32:26.392Z,15.1
2023-04-20T20:35:13.794Z,14.9
2023-04-20T20:38:01.951Z,16.4
2023-04-20T20:40:52.328Z,18.1
2023-04-20T20:43:39.670Z,17.6
2023-04-20T20:46:27.827Z,16.9
2023-04-20T20:49:16.477Z,16.2
2023-04-20T20:52:03.976Z,15.7
2023-04-20T20:54:51.882Z,15.3
2023-04-20T20:57:39.325Z,14.9
2023-04-20T21:00:26.874Z,16.1
2023-04-20T21:03:14.391Z,18.2
2023-04-20T21:06:02.081Z,17.8
2023-04-20T21:08:50.399Z,16.9
2023-04-20T21:11:37.809Z,16.2
2023-04-20T21:14:25.305Z,15.5
2023-04-20T21:17:13.096Z,15.1
2023-04-20T21:20:00.579Z,14.7
2023-04-20T21:22:50.409Z,14.4
2023-04-20T21:25:37.864Z,14.1
2023-04-20T21:28:25.734Z,13.9
2023-04-20T21:31:13.225Z,13.7
2023-04-20T21:34:00.579Z,15.5
2023-04-20T21:36:48.025Z,17.4
2023-04-20T21:39:35.507Z,16.9
2023-04-20T21:42:22.990Z,16.1
2023-04-20T21:45:10.511Z,15.5
2023-04-20T21:47:58.755Z,14.9
2023-04-20T21:50:46.565Z,14.5
2023-04-20T21:53:33.799Z,14.1
2023-04-20T21:56:21.096Z,13.8
2023-04-20T21:59:08.466Z,13.6
2023-04-20T22:01:56.092Z,14.7
2023-04-20T22:04:44.089Z,17
2023-04-20T22:07:31.688Z,16.6
2023-04-20T22:10:19.469Z,15.9
2023-04-20T22:13:08.320Z,15.2
2023-04-20T22:15:57.816Z,14.6
2023-04-20T22:18:45.332Z,14.2
2023-04-20T22:21:33.534Z,13.8
2023-04-20T22:24:20.997Z,13.5
2023-04-20T22:27:08.714Z,13.2
2023-04-20T22:29:56.095Z,15
2023-04-20T22:32:43.623Z,16.4
2023-04-20T22:35:31.073Z,15.9
2023-04-20T22:38:18.288Z,15.2
2023-04-20T22:41:05.626Z,14.5
2023-04-20T22:43:52.988Z,14
2023-04-20T22:46:40.396Z,13.7
2023-04-20T22:49:28.658Z,13.4
2023-04-20T22:52:16.747Z,13.1
2023-04-20T22:55:04.055Z,14.8
2023-04-20T22:57:53.443Z,16.1
2023-04-20T23:00:40.865Z,15.6
2023-04-20T23:03:28.775Z,14.9
2023-04-20T23:06:17.003Z,14.2
2023-04-20T23:09:06.602Z,13.7
2023-04-20T23:11:54.523Z,13.3
2023-04-20T23:14:41.946Z,14.6
2023-04-20T23:17:29.281Z,15.7
2023-04-20T23:20:17.028Z,15.2
2023-04-20T23:23:04.536Z,14.5
2023-04-20T23:25:52.225Z,13.9
2023-04-20T23:28:39.538Z,13.5
2023-04-20T23:31:27.125Z,13.1
2023-04-20T23:34:14.603Z,14.5
2023-04-20T23:37:01.901Z,16.4
2023-04-20T23:39:49.280Z,15.9
2023-04-20T23:42:36.588Z,15
2023-04-20T23:45:23.968Z,14.2
2023-04-20T23:48:11.820Z,13.6
2023-04-20T23:50:59.110Z,13.2
2023-04-20T23:53:47.314Z,12.8
2023-04-20T23:56:34.644Z,12.5
2023-04-20T23:59:22.008Z,14.2
